createdAt,value
2022-09-15T00:00:54.321Z,16.00
2022-09-15T00:01:54.341Z,15.70
2022-09-15T00:02:54.360Z,16.70
2022-09-15T00:03:54.308Z,15.30
2022-09-15T00:04:54.307Z,15.50
2022-09-15T00:05:54.296Z,16.20
2022-09-15T00:06:54.270Z,15.60
2022-09-15T00:07:54.255Z,15.60
2022-09-15T00:08:54.236Z,16.30
2022-09-15T00:09:54.245Z,16.10
2022-09-15T00:10:54.226Z,17.40
2022-09-15T00:11:54.233Z,15.70
2022-09-15T00:12:54.204Z,16.70
2022-09-15T00:13:54.187Z,14.90
2022-09-15T00:14:54.170Z,16.00
2022-09-15T00:15:54.196Z,16.40
2022-09-15T00:16:54.251Z,15.60
2022-09-15T00:17:54.158Z,15.00
2022-09-15T00:18:54.144Z,16.20
2022-09-15T00:19:54.131Z,16.60
2022-09-15T00:20:54.123Z,15.10
2022-09-15T00:21:54.133Z,15.50
2022-09-15T00:22:54.107Z,16.90
2022-09-15T00:23:54.089Z,15.90
2022-09-15T00:24:54.065Z,15.60
2022-09-15T00:25:54.071Z,15.80
2022-09-15T00:26:54.073Z,16.10
2022-09-15T00:27:54.037Z,16.50
2022-09-15T00:28:54.034Z,15.10
2022-09-15T00:29:54.025Z,14.90
2022-09-15T00:30:54.070Z,16.80
2022-09-15T00:31:53.989Z,16.00
2022-09-15T00:32:53.980Z,14.60
2022-09-15T00:33:53.976Z,16.00
2022-09-15T00:34:53.959Z,15.70
2022-09-15T00:35:53.964Z,15.40
2022-09-15T00:36:53.947Z,14.90
2022-09-15T00:37:53.940Z,16.60
2022-09-15T00:38:53.980Z,15.00
2022-09-15T00:39:53.983Z,15.00
2022-09-15T00:40:53.916Z,15.60
2022-09-15T00:41:53.875Z,16.80
2022-09-15T00:42:53.869Z,15.10
2022-09-15T00:43:53.867Z,14.90
2022-09-15T00:44:53.850Z,15.30
2022-09-15T00:46:01.497Z,15.50
2022-09-15T00:47:15.267Z,16.10
2022-09-15T00:47:54.820Z,16.50
2022-09-15T00:48:53.806Z,15.70
2022-09-15T00:49:57.064Z,15.40
2022-09-15T00:50:54.791Z,15.10
2022-09-15T00:51:53.767Z,15.00
2022-09-15T00:52:53.790Z,15.70
2022-09-15T00:53:53.801Z,16.40
2022-09-15T00:54:53.750Z,16.00
2022-09-15T00:55:53.724Z,15.20
2022-09-15T00:56:53.722Z,15.80
2022-09-15T00:57:53.717Z,15.70
2022-09-15T00:58:53.694Z,15.60
2022-09-15T00:59:53.693Z,15.70
2022-09-15T01:00:53.714Z,15.50
2022-09-15T01:01:53.744Z,15.30
2022-09-15T01:02:53.650Z,15.50
2022-09-15T01:03:53.639Z,16.40
2022-09-15T01:04:58.009Z,15.20
2022-09-15T01:05:53.613Z,15.10
2022-09-15T01:06:53.612Z,16.60
2022-09-15T01:07:53.608Z,16.80
2022-09-15T01:08:53.605Z,15.40
2022-09-15T01:09:53.589Z,15.30
2022-09-15T01:10:53.570Z,15.00
2022-09-15T01:11:53.546Z,15.20
2022-09-15T01:12:53.554Z,17.60
2022-09-15T01:13:53.524Z,15.60
2022-09-15T01:14:53.522Z,15.20
2022-09-15T01:15:53.503Z,17.10
2022-09-15T01:16:53.565Z,17.10
2022-09-15T01:17:53.499Z,17.30
2022-09-15T01:18:53.493Z,18.60
2022-09-15T01:19:53.463Z,16.70
2022-09-15T01:20:53.482Z,18.80
2022-09-15T01:21:58.101Z,16.60
2022-09-15T01:22:54.431Z,17.70
2022-09-15T01:23:53.429Z,18.00
2022-09-15T01:24:53.413Z,16.90
2022-09-15T01:25:53.418Z,17.80
2022-09-15T01:26:53.391Z,18.30
2022-09-15T01:27:53.377Z,17.60
2022-09-15T01:28:53.452Z,17.80
2022-09-15T01:29:53.368Z,17.90
2022-09-15T01:30:53.348Z,17.30
2022-09-15T01:31:53.383Z,17.20
2022-09-15T01:32:53.332Z,18.80
2022-09-15T01:33:53.331Z,20.20
2022-09-15T01:34:53.302Z,18.60
2022-09-15T01:35:53.315Z,18.80
2022-09-15T01:36:53.290Z,19.10
2022-09-15T01:37:53.264Z,20.20
2022-09-15T01:38:53.262Z,21.10
2022-09-15T01:39:53.336Z,20.30
2022-09-15T01:40:53.263Z,19.40
2022-09-15T01:41:53.239Z,19.90
2022-09-15T01:42:53.223Z,20.40
2022-09-15T01:43:53.214Z,19.90
2022-09-15T01:44:53.199Z,19.40
2022-09-15T01:45:53.253Z,19.20
2022-09-15T01:46:53.213Z,18.30
2022-09-15T01:47:53.172Z,19.30
2022-09-15T01:48:53.150Z,18.90
2022-09-15T01:49:53.136Z,20.30
2022-09-15T01:50:53.131Z,20.10
2022-09-15T01:51:53.128Z,17.90
2022-09-15T01:52:53.106Z,18.30
2022-09-15T01:53:53.090Z,19.10
2022-09-15T01:54:53.086Z,19.30
2022-09-15T01:55:53.069Z,19.90
2022-09-15T01:56:53.096Z,18.80
2022-09-15T01:57:53.080Z,18.80
2022-09-15T01:58:53.104Z,20.10
2022-09-15T01:59:53.044Z,22.90
2022-09-15T02:00:53.079Z,19.10
2022-09-15T02:01:53.073Z,18.80
2022-09-15T02:02:53.023Z,18.10
2022-09-15T02:03:52.985Z,18.00
2022-09-15T02:04:52.974Z,19.30
2022-09-15T02:05:52.987Z,18.60
2022-09-15T02:06:52.974Z,19.10
2022-09-15T02:07:52.939Z,18.50
2022-09-15T02:08:52.983Z,18.30
2022-09-15T02:09:52.916Z,19.70
2022-09-15T02:10:52.911Z,19.50
2022-09-15T02:11:52.902Z,18.30
2022-09-15T02:12:52.899Z,18.10
2022-09-15T02:13:52.944Z,19.80
2022-09-15T02:14:52.866Z,18.70
2022-09-15T02:15:52.851Z,18.80
2022-09-15T02:16:52.904Z,17.70
2022-09-15T02:17:52.826Z,18.90
2022-09-15T02:18:52.823Z,18.40
2022-09-15T02:19:52.805Z,18.80
2022-09-15T02:20:52.799Z,17.60
2022-09-15T02:21:52.805Z,18.70
2022-09-15T02:22:52.788Z,18.80
2022-09-15T02:23:52.860Z,17.30
2022-09-15T02:24:52.754Z,18.20
2022-09-15T02:25:52.750Z,17.90
2022-09-15T02:26:53.653Z,17.10
2022-09-15T02:27:52.720Z,18.50
2022-09-15T02:28:52.788Z,19.40
2022-09-15T02:29:52.714Z,19.10
2022-09-15T02:30:52.713Z,18.00
2022-09-15T02:31:52.796Z,20.60
2022-09-15T02:32:52.667Z,19.50
2022-09-15T02:33:52.672Z,17.20
2022-09-15T02:34:52.660Z,18.50
2022-09-15T02:35:52.632Z,20.70
2022-09-15T02:36:52.638Z,20.30
2022-09-15T02:37:52.613Z,19.80
2022-09-15T02:38:52.662Z,19.50
2022-09-15T02:39:52.637Z,18.00
2022-09-15T02:40:52.599Z,19.20
2022-09-15T02:41:52.563Z,18.20
2022-09-15T02:42:52.557Z,23.10
2022-09-15T02:43:52.609Z,23.70
2022-09-15T02:44:52.551Z,27.20
2022-09-15T02:45:52.615Z,27.10
2022-09-15T02:47:00.027Z,21.40
2022-09-15T02:47:52.512Z,22.60
2022-09-15T02:48:52.488Z,23.60
2022-09-15T02:49:52.472Z,27.60
2022-09-15T02:50:52.467Z,26.60
2022-09-15T02:51:52.476Z,27.50
2022-09-15T02:52:52.445Z,28.80
2022-09-15T02:53:52.436Z,34.60
2022-09-15T02:54:52.446Z,31.50
2022-09-15T02:55:52.412Z,33.20
2022-09-15T02:56:52.413Z,37.10
2022-09-15T02:57:52.388Z,36.30
2022-09-15T02:58:52.428Z,33.10
2022-09-15T02:59:52.380Z,36.70
2022-09-15T03:00:52.394Z,36.80
2022-09-15T03:01:52.429Z,35.30
2022-09-15T03:02:52.349Z,31.90
2022-09-15T03:03:52.317Z,38.80
2022-09-15T03:04:52.313Z,32.90
2022-09-15T03:05:52.307Z,31.60
2022-09-15T03:06:52.290Z,41.10
2022-09-15T03:07:52.278Z,33.50
2022-09-15T03:08:52.365Z,35.40
2022-09-15T03:09:52.253Z,34.10
2022-09-15T03:10:52.258Z,32.30
2022-09-15T03:11:52.274Z,36.00
2022-09-15T03:12:52.237Z,30.90
2022-09-15T03:13:52.267Z,36.20
2022-09-15T03:14:52.200Z,32.50
2022-09-15T03:15:52.251Z,36.20
2022-09-15T03:16:52.199Z,27.70
2022-09-15T03:17:52.180Z,30.50
2022-09-15T03:18:52.187Z,30.50
2022-09-15T03:19:52.152Z,31.20
2022-09-15T03:20:52.147Z,32.60
2022-09-15T03:21:52.125Z,33.90
2022-09-15T03:22:52.132Z,31.30
2022-09-15T03:23:52.255Z,30.90
2022-09-15T03:24:52.116Z,30.70
2022-09-15T03:25:52.108Z,35.80
2022-09-15T03:26:52.096Z,32.80
2022-09-15T03:27:52.056Z,31.20
2022-09-15T03:28:52.074Z,36.60
2022-09-15T03:29:52.037Z,35.50
2022-09-15T03:30:52.042Z,32.90
2022-09-15T03:31:52.063Z,31.70
2022-09-15T03:32:52.013Z,33.10
2022-09-15T03:33:52.008Z,31.20
2022-09-15T03:34:56.398Z,28.10
2022-09-15T03:35:52.967Z,28.50
2022-09-15T03:36:51.972Z,30.70
2022-09-15T03:37:51.976Z,35.80
2022-09-15T03:38:52.014Z,33.40
2022-09-15T03:39:52.004Z,34.30
2022-09-15T03:40:51.924Z,34.40
2022-09-15T03:41:51.900Z,32.10
2022-09-15T03:42:51.907Z,34.20
2022-09-15T03:43:51.889Z,30.90
2022-09-15T03:44:51.888Z,32.70
2022-09-15T03:45:51.942Z,29.90
2022-09-15T03:46:51.852Z,31.30
2022-09-15T03:47:51.844Z,30.50
2022-09-15T03:48:51.853Z,32.80
2022-09-15T03:49:51.833Z,31.10
2022-09-15T03:50:51.810Z,31.50
2022-09-15T03:51:51.791Z,30.60
2022-09-15T03:52:54.548Z,30.20
2022-09-15T03:53:53.019Z,31.30
2022-09-15T03:54:51.779Z,28.60
2022-09-15T03:55:51.767Z,30.70
2022-09-15T03:56:51.778Z,31.00
2022-09-15T03:57:51.726Z,29.60
2022-09-15T03:58:51.732Z,29.30
2022-09-15T03:59:51.731Z,28.80
2022-09-15T04:00:51.745Z,27.00
2022-09-15T04:01:51.762Z,27.50
2022-09-15T04:02:51.688Z,26.90
2022-09-15T04:03:51.731Z,27.10
2022-09-15T04:04:51.655Z,27.20
2022-09-15T04:05:51.660Z,27.00
2022-09-15T04:06:51.631Z,26.30
2022-09-15T04:07:51.629Z,26.60
2022-09-15T04:08:51.723Z,27.60
2022-09-15T04:09:51.620Z,26.30
2022-09-15T04:10:51.588Z,26.50
2022-09-15T04:11:51.579Z,25.20
2022-09-15T04:12:51.568Z,25.50
2022-09-15T04:13:51.563Z,24.70
2022-09-15T04:14:51.547Z,25.40
2022-09-15T04:15:51.561Z,25.00
2022-09-15T04:16:51.522Z,25.00
2022-09-15T04:17:51.508Z,25.20
2022-09-15T04:18:51.511Z,24.70
2022-09-15T04:19:51.505Z,26.90
2022-09-15T04:20:51.487Z,24.10
2022-09-15T04:21:51.495Z,25.20
2022-09-15T04:22:51.457Z,24.40
2022-09-15T04:23:51.616Z,25.50
2022-09-15T04:24:51.437Z,23.80
2022-09-15T04:25:51.420Z,24.20
2022-09-15T04:26:51.414Z,24.30
2022-09-15T04:27:51.418Z,24.00
2022-09-15T04:28:51.405Z,23.50
2022-09-15T04:29:51.378Z,23.30
2022-09-15T04:30:51.372Z,25.40
2022-09-15T04:31:51.457Z,24.10
2022-09-15T04:32:51.354Z,23.60
2022-09-15T04:33:51.350Z,23.30
2022-09-15T04:34:51.344Z,22.10
2022-09-15T04:35:51.315Z,22.70
2022-09-15T04:36:51.300Z,22.40
2022-09-15T04:37:51.325Z,24.50
2022-09-15T04:38:51.383Z,23.30
2022-09-15T04:39:51.316Z,22.70
2022-09-15T04:40:51.267Z,23.00
2022-09-15T04:41:51.255Z,21.70
2022-09-15T04:42:51.236Z,21.60
2022-09-15T04:43:51.266Z,21.30
2022-09-15T04:44:51.218Z,22.10
2022-09-15T04:45:51.247Z,20.90
2022-09-15T04:46:51.296Z,20.90
2022-09-15T04:47:58.270Z,21.10
2022-09-15T04:48:51.215Z,20.60
2022-09-15T04:49:51.165Z,20.60
2022-09-15T04:50:51.163Z,20.90
2022-09-15T04:51:51.152Z,20.20
2022-09-15T04:52:51.125Z,21.20
2022-09-15T04:53:51.301Z,20.80
2022-09-15T04:54:51.104Z,20.60
2022-09-15T04:55:51.108Z,21.70
2022-09-15T04:56:51.081Z,20.40
2022-09-15T04:57:51.077Z,21.10
2022-09-15T04:58:51.071Z,19.50
2022-09-15T04:59:51.064Z,20.80
2022-09-15T05:00:51.104Z,21.40
2022-09-15T05:01:51.091Z,20.00
2022-09-15T05:02:51.027Z,21.70
2022-09-15T05:03:51.011Z,21.40
2022-09-15T05:04:51.004Z,20.40
2022-09-15T05:05:50.994Z,19.40
2022-09-15T05:06:50.987Z,20.30
2022-09-15T05:07:50.965Z,21.10
2022-09-15T05:08:51.160Z,21.10
2022-09-15T05:09:50.964Z,20.40
2022-09-15T05:10:50.953Z,19.20
2022-09-15T05:11:50.923Z,19.80
2022-09-15T05:12:50.923Z,20.20
2022-09-15T05:13:50.906Z,18.40
2022-09-15T05:14:50.905Z,18.90
2022-09-15T05:15:50.947Z,18.90
2022-09-15T05:16:50.876Z,19.00
2022-09-15T05:17:50.878Z,18.40
2022-09-15T05:18:50.841Z,19.10
2022-09-15T05:19:50.838Z,18.40
2022-09-15T05:20:50.833Z,18.60
2022-09-15T05:21:50.829Z,18.10
2022-09-15T05:22:50.799Z,18.50
2022-09-15T05:23:50.821Z,18.70
2022-09-15T05:24:51.724Z,18.40
2022-09-15T05:25:50.810Z,18.10
2022-09-15T05:26:50.767Z,17.80
2022-09-15T05:27:50.764Z,18.00
2022-09-15T05:28:50.731Z,17.90
2022-09-15T05:30:00.339Z,17.90
2022-09-15T05:30:51.711Z,18.30
2022-09-15T05:31:50.806Z,18.20
2022-09-15T05:32:50.687Z,17.90
2022-09-15T05:33:50.713Z,18.70
2022-09-15T05:34:50.667Z,18.10
2022-09-15T05:35:50.659Z,18.90
2022-09-15T05:36:50.648Z,18.30
2022-09-15T05:37:50.650Z,17.10
2022-09-15T05:38:50.798Z,17.40
2022-09-15T05:39:50.678Z,18.30
2022-09-15T05:40:50.638Z,17.60
2022-09-15T05:41:50.802Z,17.30
2022-09-15T05:42:50.637Z,17.20
2022-09-15T05:43:50.592Z,16.90
2022-09-15T05:44:50.556Z,18.10
2022-09-15T05:45:50.550Z,18.00
2022-09-15T05:46:50.597Z,17.10
2022-09-15T05:47:50.599Z,17.30
2022-09-15T05:48:50.527Z,17.50
2022-09-15T05:49:50.625Z,16.60
2022-09-15T05:50:50.494Z,17.50
2022-09-15T05:51:50.888Z,16.90
2022-09-15T05:52:50.480Z,16.20
2022-09-15T05:53:50.590Z,17.00
2022-09-15T05:54:50.448Z,16.30
2022-09-15T05:55:50.463Z,16.90
2022-09-15T05:56:50.429Z,16.00
2022-09-15T05:57:50.466Z,16.50
2022-09-15T05:58:50.449Z,15.30
2022-09-15T05:59:50.401Z,16.20
2022-09-15T06:00:50.432Z,16.00
2022-09-15T06:01:50.465Z,16.80
2022-09-15T06:02:50.477Z,14.50
2022-09-15T06:03:50.359Z,15.50
2022-09-15T06:04:50.339Z,14.40
2022-09-15T06:05:50.347Z,15.30
2022-09-15T06:06:50.342Z,13.50
2022-09-15T06:07:50.311Z,15.00
2022-09-15T06:08:55.411Z,13.90
2022-09-15T06:09:51.303Z,13.90
2022-09-15T06:10:50.289Z,14.20
2022-09-15T06:11:50.318Z,14.10
2022-09-15T06:12:50.251Z,14.40
2022-09-15T06:13:50.361Z,14.90
2022-09-15T06:14:50.241Z,14.50
2022-09-15T06:15:50.267Z,14.20
2022-09-15T06:16:50.246Z,14.60
2022-09-15T06:17:50.530Z,14.50
2022-09-15T06:18:50.467Z,13.60
2022-09-15T06:19:50.194Z,13.50
2022-09-15T06:20:50.379Z,14.00
2022-09-15T06:21:50.364Z,13.50
2022-09-15T06:22:50.149Z,13.20
2022-09-15T06:23:50.975Z,13.60
2022-09-15T06:24:50.148Z,13.20
2022-09-15T06:25:50.116Z,14.70
2022-09-15T06:26:50.115Z,13.60
2022-09-15T06:27:50.094Z,13.20
2022-09-15T06:28:50.138Z,13.80
2022-09-15T06:29:50.109Z,14.00
2022-09-15T06:30:50.058Z,13.00
2022-09-15T06:31:50.146Z,13.90
2022-09-15T06:32:50.059Z,14.00
2022-09-15T06:33:50.038Z,13.30
2022-09-15T06:34:50.032Z,12.40
2022-09-15T06:35:50.019Z,12.90
2022-09-15T06:36:49.991Z,12.40
2022-09-15T06:37:49.984Z,13.20
2022-09-15T06:38:49.985Z,12.50
2022-09-15T06:39:50.098Z,12.20
2022-09-15T06:40:49.952Z,12.10
2022-09-15T06:42:02.298Z,12.20
2022-09-15T06:42:50.926Z,11.80
2022-09-15T22:45:54.039Z,1.80
2022-09-15T22:46:53.914Z,1.00
2022-09-15T22:47:53.887Z,1.40
2022-09-15T22:48:53.881Z,1.00
2022-09-15T22:49:53.883Z,1.00
2022-09-15T22:50:53.856Z,0.70
2022-09-15T22:51:53.842Z,0.80
2022-09-15T22:52:53.848Z,1.00
2022-09-15T22:53:53.971Z,0.90
2022-09-15T22:54:53.826Z,1.00
2022-09-15T22:55:53.796Z,1.00
2022-09-15T22:56:53.791Z,1.40
2022-09-15T22:57:53.779Z,1.50
2022-09-15T22:58:53.778Z,0.90
2022-09-15T22:59:53.764Z,0.90
2022-09-15T23:00:53.813Z,0.80
2022-09-15T23:01:53.778Z,1.00
2022-09-15T23:02:53.724Z,1.00
2022-09-15T23:03:53.729Z,1.10
2022-09-15T23:04:53.704Z,1.20
2022-09-15T23:05:53.691Z,0.70
2022-09-15T23:06:53.685Z,0.90
2022-09-15T23:07:53.685Z,0.80
2022-09-15T23:08:53.831Z,1.00
2022-09-15T23:09:54.375Z,1.10
2022-09-15T23:10:53.646Z,1.10
2022-09-15T23:11:53.622Z,1.10
2022-09-15T23:12:53.614Z,0.90
2022-09-15T23:13:53.612Z,1.10
2022-09-15T23:14:53.611Z,1.00
2022-09-15T23:15:53.631Z,1.30
2022-09-15T23:16:53.580Z,1.00
2022-09-15T23:17:53.575Z,1.20
2022-09-15T23:18:53.565Z,0.90
2022-09-15T23:19:53.540Z,1.10
2022-09-15T23:20:53.536Z,0.90
2022-09-15T23:21:53.505Z,1.00
2022-09-15T23:22:53.503Z,0.90
2022-09-15T23:23:53.650Z,0.90
2022-09-15T23:24:53.492Z,1.10
2022-09-15T23:25:53.462Z,0.90
2022-09-15T23:26:53.486Z,1.00
2022-09-15T23:27:53.446Z,1.10
2022-09-15T23:28:53.430Z,1.10
2022-09-15T23:29:53.414Z,1.10
2022-09-15T23:30:53.408Z,1.00
2022-09-15T23:31:53.478Z,1.20
2022-09-15T23:32:53.400Z,1.10
2022-09-15T23:33:53.412Z,0.90
2022-09-15T23:34:53.364Z,0.90
2022-09-15T23:35:53.349Z,1.10
2022-09-15T23:36:53.342Z,1.00
2022-09-15T23:37:53.336Z,1.10
2022-09-15T23:38:53.472Z,1.10
2022-09-15T23:39:53.347Z,0.90
2022-09-15T23:40:53.299Z,1.30
2022-09-15T23:41:53.282Z,1.10
2022-09-15T23:42:53.297Z,1.00
2022-09-15T23:43:53.263Z,1.00
2022-09-15T23:44:53.263Z,1.00
2022-09-15T23:45:53.261Z,1.00
2022-09-15T23:46:53.334Z,0.90
2022-09-15T23:47:53.217Z,1.10
2022-09-15T23:48:53.232Z,1.30
2022-09-15T23:49:53.237Z,1.10
2022-09-15T23:50:53.183Z,1.00
2022-09-15T23:51:53.195Z,1.00
2022-09-15T23:52:53.158Z,1.40
2022-09-15T23:53:53.245Z,1.30
2022-09-15T23:54:53.150Z,1.10
2022-09-15T23:55:53.138Z,1.00
2022-09-15T23:56:53.138Z,1.10
2022-09-15T23:57:53.107Z,1.00
2022-09-15T23:58:53.109Z,0.90
2022-09-15T23:59:53.099Z,1.00
